sensor_id;sensor_type;location;lat;lon;timestamp;pressure;altitude;pressure_sealevel;temperature;humidity
7748;BME280;3918;42.564;23.164;2023-08-01T05:49:26;-11650.84;;;-142.29;42.57
7748;BME280;3918;42.564;23.164;2023-08-01T05:55:45;-11650.84;;;-142.29;43.32
7748;BME280;3918;42.564;23.164;2023-08-01T06:01:28;-11650.84;;;-142.29;43.55
7748;BME280;3918;42.564;23.164;2023-08-01T06:04:09;-11650.84;;;-142.29;41.55
7748;BME280;3918;42.564;23.164;2023-08-01T06:06:51;-11650.84;;;-142.29;39.44
7748;BME280;3918;42.564;23.164;2023-08-01T06:09:31;-11650.84;;;-142.29;39.96
7748;BME280;3918;42.564;23.164;2023-08-01T06:12:12;-11650.84;;;-142.29;40.92
7748;BME280;3918;42.564;23.164;2023-08-01T06:14:53;-11650.84;;;-142.29;39.31
7748;BME280;3918;42.564;23.164;2023-08-01T06:17:34;-11650.84;;;-142.29;39.99
7748;BME280;3918;42.564;23.164;2023-08-01T06:20:15;-11650.84;;;-142.29;37.18
7748;BME280;3918;42.564;23.164;2023-08-01T06:26:16;-11650.84;;;-142.29;39.02
7748;BME280;3918;42.564;23.164;2023-08-01T06:28:56;-11650.84;;;-142.29;37.03
7748;BME280;3918;42.564;23.164;2023-08-01T06:31:39;-11650.84;;;-142.29;39.17
7748;BME280;3918;42.564;23.164;2023-08-01T06:34:44;-11650.84;;;-142.29;40.63
7748;BME280;3918;42.564;23.164;2023-08-01T06:37:26;-11650.84;;;-142.29;39.99
7748;BME280;3918;42.564;23.164;2023-08-01T06:43:31;-11650.84;;;-142.29;41.76
7748;BME280;3918;42.564;23.164;2023-08-01T07:46:15;-11650.84;;;-142.29;39.15
7748;BME280;3918;42.564;23.164;2023-08-01T08:09:11;-11650.84;;;-142.29;37.20
7748;BME280;3918;42.564;23.164;2023-08-01T08:12:39;-11650.84;;;-142.29;40.72
7748;BME280;3918;42.564;23.164;2023-08-01T08:47:47;-11650.84;;;-142.29;39.74
7748;BME280;3918;42.564;23.164;2023-08-01T08:53:52;-11650.84;;;-142.29;39.15
7748;BME280;3918;42.564;23.164;2023-08-01T08:59:56;-11650.84;;;-142.29;39.65
7748;BME280;3918;42.564;23.164;2023-08-01T09:23:43;-11650.84;;;-142.29;41.42
7748;BME280;3918;42.564;23.164;2023-08-01T09:30:08;-11650.84;;;-142.29;44.37
7748;BME280;3918;42.564;23.164;2023-08-01T09:32:52;-11650.84;;;-142.29;41.67
7748;BME280;3918;42.564;23.164;2023-08-01T09:35:57;-11650.84;;;-142.29;46.09
7748;BME280;3918;42.564;23.164;2023-08-01T09:38:24;-11650.84;;;-142.29;44.05
7748;BME280;3918;42.564;23.164;2023-08-01T09:41:18;-11650.84;;;-142.29;44.02
7748;BME280;3918;42.564;23.164;2023-08-01T09:47:36;-11650.84;;;-142.29;44.68
7748;BME280;3918;42.564;23.164;2023-08-01T09:50:36;-11650.84;;;-142.29;44.74
7748;BME280;3918;42.564;23.164;2023-08-01T09:53:23;-11650.84;;;-142.29;42.63
7748;BME280;3918;42.564;23.164;2023-08-01T09:56:03;-11650.84;;;-142.29;43.36
7748;BME280;3918;42.564;23.164;2023-08-01T10:01:46;-11650.84;;;-142.29;46.24
7748;BME280;3918;42.564;23.164;2023-08-01T10:04:52;-11650.84;;;-142.29;47.14
7748;BME280;3918;42.564;23.164;2023-08-01T10:08:02;-11650.84;;;-142.29;48.57
7748;BME280;3918;42.564;23.164;2023-08-01T10:11:05;-11650.84;;;-142.29;44.69
7748;BME280;3918;42.564;23.164;2023-08-01T10:13:33;-11650.84;;;-142.29;44.36
7748;BME280;3918;42.564;23.164;2023-08-01T10:16:17;-11650.84;;;-142.29;47.32
7748;BME280;3918;42.564;23.164;2023-08-01T10:19:23;-11650.84;;;-142.29;46.88
7748;BME280;3918;42.564;23.164;2023-08-01T10:25:50;-11650.84;;;-142.29;46.50
7748;BME280;3918;42.564;23.164;2023-08-01T10:42:12;-11650.84;;;-142.29;44.61
7748;BME280;3918;42.564;23.164;2023-08-01T10:44:46;-11650.84;;;-142.29;43.32
7748;BME280;3918;42.564;23.164;2023-08-01T11:00:57;-11650.84;;;-142.29;43.16
7748;BME280;3918;42.564;23.164;2023-08-01T11:03:42;-11650.84;;;-142.29;40.38
7748;BME280;3918;42.564;23.164;2023-08-01T11:06:25;-11650.84;;;-142.29;39.53
7748;BME280;3918;42.564;23.164;2023-08-01T11:09:16;-11650.84;;;-142.29;44.27
7748;BME280;3918;42.564;23.164;2023-08-01T11:12:20;-11650.84;;;-142.29;41.91
7748;BME280;3918;42.564;23.164;2023-08-01T11:14:48;-11650.84;;;-142.29;40.38
7748;BME280;3918;42.564;23.164;2023-08-01T11:17:15;-11650.84;;;-142.29;41.74
7748;BME280;3918;42.564;23.164;2023-08-01T11:19:41;-11650.84;;;-142.29;41.65
7748;BME280;3918;42.564;23.164;2023-08-01T11:22:09;-11650.84;;;-142.29;40.88
7748;BME280;3918;42.564;23.164;2023-08-01T11:24:36;-11650.84;;;-142.29;42.49
7748;BME280;3918;42.564;23.164;2023-08-01T11:27:04;-11650.84;;;-142.29;43.69
7748;BME280;3918;42.564;23.164;2023-08-01T11:29:31;-11650.84;;;-142.29;43.11
7748;BME280;3918;42.564;23.164;2023-08-01T11:32:06;-11650.84;;;-142.29;43.57
7748;BME280;3918;42.564;23.164;2023-08-01T11:34:39;-11650.84;;;-142.29;39.63
7748;BME280;3918;42.564;23.164;2023-08-01T11:37:06;-11650.84;;;-142.29;39.17
7748;BME280;3918;42.564;23.164;2023-08-01T11:39:33;-11650.84;;;-142.29;39.79
7748;BME280;3918;42.564;23.164;2023-08-01T11:42:00;-11650.84;;;-142.29;39.47
7748;BME280;3918;42.564;23.164;2023-08-01T11:44:28;-11650.84;;;-142.29;40.22
7748;BME280;3918;42.564;23.164;2023-08-01T11:46:55;-11650.84;;;-142.29;39.92
7748;BME280;3918;42.564;23.164;2023-08-01T11:49:24;-11650.84;;;-142.29;42.97
7748;BME280;3918;42.564;23.164;2023-08-01T11:51:51;-11650.84;;;-142.29;39.74
7748;BME280;3918;42.564;23.164;2023-08-01T11:54:18;-11650.84;;;-142.29;42.41
7748;BME280;3918;42.564;23.164;2023-08-01T11:56:45;-11650.84;;;-142.29;38.79
7748;BME280;3918;42.564;23.164;2023-08-01T11:59:12;-11650.84;;;-142.29;39.35
7748;BME280;3918;42.564;23.164;2023-08-01T12:01:40;-11650.84;;;-142.29;41.10
7748;BME280;3918;42.564;23.164;2023-08-01T12:04:07;-11650.84;;;-142.29;40.37
7748;BME280;3918;42.564;23.164;2023-08-01T12:06:35;-11650.84;;;-142.29;37.99
7748;BME280;3918;42.564;23.164;2023-08-01T12:09:09;-11650.84;;;-142.29;38.23
7748;BME280;3918;42.564;23.164;2023-08-01T12:11:36;-11650.84;;;-142.29;39.70
7748;BME280;3918;42.564;23.164;2023-08-01T12:14:06;-11650.84;;;-142.29;41.07
7748;BME280;3918;42.564;23.164;2023-08-01T12:16:35;-11650.84;;;-142.29;38.35
7748;BME280;3918;42.564;23.164;2023-08-01T12:19:02;-11650.84;;;-142.29;38.33
7748;BME280;3918;42.564;23.164;2023-08-01T12:21:30;-11650.84;;;-142.29;39.12
7748;BME280;3918;42.564;23.164;2023-08-01T12:23:58;-11650.84;;;-142.29;40.42
7748;BME280;3918;42.564;23.164;2023-08-01T12:26:26;-11650.84;;;-142.29;40.81
7748;BME280;3918;42.564;23.164;2023-08-01T12:28:53;-11650.84;;;-142.29;40.17
7748;BME280;3918;42.564;23.164;2023-08-01T12:31:21;-11650.84;;;-142.29;42.40
7748;BME280;3918;42.564;23.164;2023-08-01T12:33:48;-11650.84;;;-142.29;39.88
7748;BME280;3918;42.564;23.164;2023-08-01T12:36:15;-11650.84;;;-142.29;40.64
7748;BME280;3918;42.564;23.164;2023-08-01T12:38:42;-11650.84;;;-142.29;40.22
7748;BME280;3918;42.564;23.164;2023-08-01T12:41:10;-11650.84;;;-142.29;37.62
7748;BME280;3918;42.564;23.164;2023-08-01T12:43:37;-11650.84;;;-142.29;38.79
7748;BME280;3918;42.564;23.164;2023-08-01T12:46:04;-11650.84;;;-142.29;39.28
7748;BME280;3918;42.564;23.164;2023-08-01T12:48:31;-11650.84;;;-142.29;40.23
7748;BME280;3918;42.564;23.164;2023-08-01T12:50:58;-11650.84;;;-142.29;40.85
7748;BME280;3918;42.564;23.164;2023-08-01T12:53:24;-11650.84;;;-142.29;39.04
7748;BME280;3918;42.564;23.164;2023-08-01T12:55:51;-11650.84;;;-142.29;38.20
7748;BME280;3918;42.564;23.164;2023-08-01T12:58:19;-11650.84;;;-142.29;38.84
7748;BME280;3918;42.564;23.164;2023-08-01T13:00:46;-11650.84;;;-142.29;39.58
7748;BME280;3918;42.564;23.164;2023-08-01T13:03:13;-11650.84;;;-142.29;38.74
7748;BME280;3918;42.564;23.164;2023-08-01T13:05:41;-11650.84;;;-142.29;37.42
7748;BME280;3918;42.564;23.164;2023-08-01T13:08:08;-11650.84;;;-142.29;38.70
7748;BME280;3918;42.564;23.164;2023-08-01T13:10:37;-11650.84;;;-142.29;38.40
7748;BME280;3918;42.564;23.164;2023-08-01T13:13:04;-11650.84;;;-142.29;38.48
7748;BME280;3918;42.564;23.164;2023-08-01T13:15:32;-11650.84;;;-142.29;40.16
7748;BME280;3918;42.564;23.164;2023-08-01T13:17:59;-11650.84;;;-142.29;40.14
7748;BME280;3918;42.564;23.164;2023-08-01T13:20:26;-11650.84;;;-142.29;39.96
7748;BME280;3918;42.564;23.164;2023-08-01T13:22:53;-11650.84;;;-142.29;40.39
7748;BME280;3918;42.564;23.164;2023-08-01T13:25:20;-11650.84;;;-142.29;39.98
7748;BME280;3918;42.564;23.164;2023-08-01T13:27:47;-11650.84;;;-142.29;40.19
7748;BME280;3918;42.564;23.164;2023-08-01T13:30:13;-11650.84;;;-142.29;38.26
7748;BME280;3918;42.564;23.164;2023-08-01T13:32:44;-11650.84;;;-142.29;40.30
7748;BME280;3918;42.564;23.164;2023-08-01T13:35:11;-11650.84;;;-142.29;40.45
7748;BME280;3918;42.564;23.164;2023-08-01T13:37:38;-11650.84;;;-142.29;40.20
7748;BME280;3918;42.564;23.164;2023-08-01T13:40:06;-11650.84;;;-142.29;39.51
7748;BME280;3918;42.564;23.164;2023-08-01T13:42:33;-11650.84;;;-142.29;39.75
7748;BME280;3918;42.564;23.164;2023-08-01T13:45:00;-11650.84;;;-142.29;41.33
7748;BME280;3918;42.564;23.164;2023-08-01T13:47:26;-11650.84;;;-142.29;40.61
7748;BME280;3918;42.564;23.164;2023-08-01T13:49:55;-11650.84;;;-142.29;40.27
7748;BME280;3918;42.564;23.164;2023-08-01T13:52:22;-11650.84;;;-142.29;40.99
7748;BME280;3918;42.564;23.164;2023-08-01T13:54:48;-11650.84;;;-142.29;40.29
7748;BME280;3918;42.564;23.164;2023-08-01T13:57:15;-11650.84;;;-142.29;39.92
7748;BME280;3918;42.564;23.164;2023-08-01T13:59:42;-11650.84;;;-142.29;40.72
7748;BME280;3918;42.564;23.164;2023-08-01T14:02:08;-11650.84;;;-142.29;41.02
7748;BME280;3918;42.564;23.164;2023-08-01T14:04:35;-11650.84;;;-142.29;40.58
7748;BME280;3918;42.564;23.164;2023-08-01T14:07:03;-11650.84;;;-142.29;39.67
7748;BME280;3918;42.564;23.164;2023-08-01T14:09:30;-11650.84;;;-142.29;40.86
7748;BME280;3918;42.564;23.164;2023-08-01T14:11:58;-11650.84;;;-142.29;39.68
7748;BME280;3918;42.564;23.164;2023-08-01T14:14:24;-11650.84;;;-142.29;39.80
7748;BME280;3918;42.564;23.164;2023-08-01T14:16:51;-11650.84;;;-142.29;39.81
7748;BME280;3918;42.564;23.164;2023-08-01T14:19:18;-11650.84;;;-142.29;39.55
7748;BME280;3918;42.564;23.164;2023-08-01T14:21:44;-11650.84;;;-142.29;41.39
7748;BME280;3918;42.564;23.164;2023-08-01T14:24:13;-11650.84;;;-142.29;39.06
7748;BME280;3918;42.564;23.164;2023-08-01T14:26:39;-11650.84;;;-142.29;40.77
7748;BME280;3918;42.564;23.164;2023-08-01T14:29:06;-11650.84;;;-142.29;40.34
7748;BME280;3918;42.564;23.164;2023-08-01T14:31:33;-11650.84;;;-142.29;40.85
7748;BME280;3918;42.564;23.164;2023-08-01T14:34:00;-11650.84;;;-142.29;40.69
7748;BME280;3918;42.564;23.164;2023-08-01T14:36:26;-11650.84;;;-142.29;39.84
7748;BME280;3918;42.564;23.164;2023-08-01T14:38:53;-11650.84;;;-142.29;39.74
7748;BME280;3918;42.564;23.164;2023-08-01T14:41:23;-11650.84;;;-142.29;40.93
7748;BME280;3918;42.564;23.164;2023-08-01T14:43:50;-11650.84;;;-142.29;39.58
7748;BME280;3918;42.564;23.164;2023-08-01T14:46:16;-11650.84;;;-142.29;40.04
7748;BME280;3918;42.564;23.164;2023-08-01T14:48:43;-11650.84;;;-142.29;40.09
7748;BME280;3918;42.564;23.164;2023-08-01T14:51:11;-11650.84;;;-142.29;38.17
7748;BME280;3918;42.564;23.164;2023-08-01T14:53:38;-11650.84;;;-142.29;37.55
7748;BME280;3918;42.564;23.164;2023-08-01T14:56:05;-11650.84;;;-142.29;39.34
7748;BME280;3918;42.564;23.164;2023-08-01T14:58:34;-11650.84;;;-142.29;39.38
7748;BME280;3918;42.564;23.164;2023-08-01T15:01:04;-11650.84;;;-142.29;39.65
7748;BME280;3918;42.564;23.164;2023-08-01T15:03:31;-11650.84;;;-142.29;39.96
7748;BME280;3918;42.564;23.164;2023-08-01T15:06:05;-11650.84;;;-142.29;41.53
7748;BME280;3918;42.564;23.164;2023-08-01T15:08:32;-11650.84;;;-142.29;41.25
7748;BME280;3918;42.564;23.164;2023-08-01T15:11:03;-11650.84;;;-142.29;40.45
7748;BME280;3918;42.564;23.164;2023-08-01T15:13:30;-11650.84;;;-142.29;39.90
7748;BME280;3918;42.564;23.164;2023-08-01T15:15:58;-11650.84;;;-142.29;40.24
7748;BME280;3918;42.564;23.164;2023-08-01T15:18:25;-11650.84;;;-142.29;39.53
7748;BME280;3918;42.564;23.164;2023-08-01T15:20:52;-11650.84;;;-142.29;39.54
7748;BME280;3918;42.564;23.164;2023-08-01T15:23:18;-11650.84;;;-142.29;39.35
7748;BME280;3918;42.564;23.164;2023-08-01T15:25:52;-11650.84;;;-142.29;38.15
7748;BME280;3918;42.564;23.164;2023-08-01T15:28:18;-11650.84;;;-142.29;39.05
7748;BME280;3918;42.564;23.164;2023-08-01T15:30:45;-11650.84;;;-142.29;39.49
7748;BME280;3918;42.564;23.164;2023-08-01T15:33:14;-11650.84;;;-142.29;39.95
7748;BME280;3918;42.564;23.164;2023-08-01T15:35:41;-11650.84;;;-142.29;39.73
7748;BME280;3918;42.564;23.164;2023-08-01T15:38:09;-11650.84;;;-142.29;39.96
7748;BME280;3918;42.564;23.164;2023-08-01T15:40:35;-11650.84;;;-142.29;40.19
7748;BME280;3918;42.564;23.164;2023-08-01T15:43:02;-11650.84;;;-142.29;40.01
7748;BME280;3918;42.564;23.164;2023-08-01T15:45:29;-11650.84;;;-142.29;40.23
7748;BME280;3918;42.564;23.164;2023-08-01T15:47:55;-11650.84;;;-142.29;40.61
7748;BME280;3918;42.564;23.164;2023-08-01T15:50:24;-11650.84;;;-142.29;40.21
7748;BME280;3918;42.564;23.164;2023-08-01T15:52:51;-11650.84;;;-142.29;40.50
7748;BME280;3918;42.564;23.164;2023-08-01T15:55:17;-11650.84;;;-142.29;40.95
7748;BME280;3918;42.564;23.164;2023-08-01T15:57:44;-11650.84;;;-142.29;41.40
7748;BME280;3918;42.564;23.164;2023-08-01T16:00:11;-11650.84;;;-142.29;40.88
7748;BME280;3918;42.564;23.164;2023-08-01T16:02:38;-11650.84;;;-142.29;40.86
7748;BME280;3918;42.564;23.164;2023-08-01T16:05:05;-11650.84;;;-142.29;41.53
7748;BME280;3918;42.564;23.164;2023-08-01T16:07:33;-11650.84;;;-142.29;41.20
7748;BME280;3918;42.564;23.164;2023-08-01T16:10:00;-11650.84;;;-142.29;41.58
7748;BME280;3918;42.564;23.164;2023-08-01T16:12:27;-11650.84;;;-142.29;41.31
7748;BME280;3918;42.564;23.164;2023-08-01T16:14:54;-11650.84;;;-142.29;42.31
7748;BME280;3918;42.564;23.164;2023-08-01T16:17:20;-11650.84;;;-142.29;42.40
7748;BME280;3918;42.564;23.164;2023-08-01T16:19:47;-11650.84;;;-142.29;42.23
7748;BME280;3918;42.564;23.164;2023-08-01T16:22:14;-11650.84;;;-142.29;41.81
7748;BME280;3918;42.564;23.164;2023-08-01T16:24:42;-11650.84;;;-142.29;42.64
7748;BME280;3918;42.564;23.164;2023-08-01T16:27:09;-11650.84;;;-142.29;42.70
7748;BME280;3918;42.564;23.164;2023-08-01T16:29:35;-11650.84;;;-142.29;42.67
7748;BME280;3918;42.564;23.164;2023-08-01T16:32:03;-11650.84;;;-142.29;42.88
7748;BME280;3918;42.564;23.164;2023-08-01T16:34:31;-11650.84;;;-142.29;43.16
7748;BME280;3918;42.564;23.164;2023-08-01T16:36:58;-11650.84;;;-142.29;42.95
7748;BME280;3918;42.564;23.164;2023-08-01T16:39:26;-11650.84;;;-142.29;42.78
7748;BME280;3918;42.564;23.164;2023-08-01T16:41:54;-11650.84;;;-142.29;43.24
7748;BME280;3918;42.564;23.164;2023-08-01T16:44:21;-11650.84;;;-142.29;43.18
7748;BME280;3918;42.564;23.164;2023-08-01T16:46:48;-11650.84;;;-142.29;43.83
7748;BME280;3918;42.564;23.164;2023-08-01T16:49:14;-11650.84;;;-142.29;43.97
7748;BME280;3918;42.564;23.164;2023-08-01T16:51:41;-11650.84;;;-142.29;44.11
7748;BME280;3918;42.564;23.164;2023-08-01T16:54:08;-11650.84;;;-142.29;44.43
7748;BME280;3918;42.564;23.164;2023-08-01T16:56:35;-11650.84;;;-142.29;44.64
7748;BME280;3918;42.564;23.164;2023-08-01T16:59:03;-11650.84;;;-142.29;44.96
7748;BME280;3918;42.564;23.164;2023-08-01T17:01:29;-11650.84;;;-142.29;46.00
7748;BME280;3918;42.564;23.164;2023-08-01T17:03:57;-11650.84;;;-142.29;45.33
7748;BME280;3918;42.564;23.164;2023-08-01T17:06:24;-11650.84;;;-142.29;45.66
7748;BME280;3918;42.564;23.164;2023-08-01T17:08:50;-11650.84;;;-142.29;46.01
7748;BME280;3918;42.564;23.164;2023-08-01T17:11:17;-11650.84;;;-142.29;45.95
7748;BME280;3918;42.564;23.164;2023-08-01T17:13:44;-11650.84;;;-142.29;46.27
7748;BME280;3918;42.564;23.164;2023-08-01T17:16:12;-11650.84;;;-142.29;45.78
7748;BME280;3918;42.564;23.164;2023-08-01T17:18:39;-11650.84;;;-142.29;45.90
7748;BME280;3918;42.564;23.164;2023-08-01T17:21:06;-11650.84;;;-142.29;46.37
7748;BME280;3918;42.564;23.164;2023-08-01T17:23:33;-11650.84;;;-142.29;46.28
7748;BME280;3918;42.564;23.164;2023-08-01T17:25:59;-11650.84;;;-142.29;46.48
7748;BME280;3918;42.564;23.164;2023-08-01T17:28:26;-11650.84;;;-142.29;46.56
7748;BME280;3918;42.564;23.164;2023-08-01T17:30:53;-11650.84;;;-142.29;46.87
7748;BME280;3918;42.564;23.164;2023-08-01T17:33:21;-11650.84;;;-142.29;46.58
7748;BME280;3918;42.564;23.164;2023-08-01T17:35:48;-11650.84;;;-142.29;46.71
7748;BME280;3918;42.564;23.164;2023-08-01T17:38:14;-11650.84;;;-142.29;46.90
7748;BME280;3918;42.564;23.164;2023-08-01T17:40:43;-11650.84;;;-142.29;46.61
7748;BME280;3918;42.564;23.164;2023-08-01T17:43:10;-11650.84;;;-142.29;46.68
7748;BME280;3918;42.564;23.164;2023-08-01T17:45:37;-11650.84;;;-142.29;46.85
7748;BME280;3918;42.564;23.164;2023-08-01T17:48:04;-11650.84;;;-142.29;46.69
7748;BME280;3918;42.564;23.164;2023-08-01T17:50:32;-11650.84;;;-142.29;47.13
7748;BME280;3918;42.564;23.164;2023-08-01T17:52:59;-11650.84;;;-142.29;47.14
7748;BME280;3918;42.564;23.164;2023-08-01T17:55:27;-11650.84;;;-142.29;47.51
7748;BME280;3918;42.564;23.164;2023-08-01T17:57:54;-11650.84;;;-142.29;47.89
7748;BME280;3918;42.564;23.164;2023-08-01T18:00:20;-11650.84;;;-142.29;47.67
7748;BME280;3918;42.564;23.164;2023-08-01T18:02:47;-11650.84;;;-142.29;47.78
7748;BME280;3918;42.564;23.164;2023-08-01T18:05:14;-11650.84;;;-142.29;48.30
7748;BME280;3918;42.564;23.164;2023-08-01T18:07:42;-11650.84;;;-142.29;48.31
7748;BME280;3918;42.564;23.164;2023-08-01T18:10:09;-11650.84;;;-142.29;48.21
7748;BME280;3918;42.564;23.164;2023-08-01T18:12:36;-11650.84;;;-142.29;48.74
7748;BME280;3918;42.564;23.164;2023-08-01T18:15:04;-11650.84;;;-142.29;48.61
7748;BME280;3918;42.564;23.164;2023-08-01T18:17:31;-11650.84;;;-142.29;49.33
7748;BME280;3918;42.564;23.164;2023-08-01T18:19:58;-11650.84;;;-142.29;49.63
7748;BME280;3918;42.564;23.164;2023-08-01T18:22:25;-11650.84;;;-142.29;49.49
7748;BME280;3918;42.564;23.164;2023-08-01T18:24:53;-11650.84;;;-142.29;49.48
7748;BME280;3918;42.564;23.164;2023-08-01T18:27:20;-11650.84;;;-142.29;49.99
7748;BME280;3918;42.564;23.164;2023-08-01T18:29:46;-11650.84;;;-142.29;50.15
7748;BME280;3918;42.564;23.164;2023-08-01T18:32:13;-11650.84;;;-142.29;50.89
7748;BME280;3918;42.564;23.164;2023-08-01T18:34:40;-11650.84;;;-142.29;50.90
7748;BME280;3918;42.564;23.164;2023-08-01T18:37:06;-11650.84;;;-142.29;50.75
7748;BME280;3918;42.564;23.164;2023-08-01T18:39:33;-11650.84;;;-142.29;51.18
7748;BME280;3918;42.564;23.164;2023-08-01T18:42:01;-11650.84;;;-142.29;51.37
7748;BME280;3918;42.564;23.164;2023-08-01T18:44:29;-11650.84;;;-142.29;51.32
7748;BME280;3918;42.564;23.164;2023-08-01T18:46:56;-11650.84;;;-142.29;51.86
7748;BME280;3918;42.564;23.164;2023-08-01T18:49:22;-11650.84;;;-142.29;51.64
7748;BME280;3918;42.564;23.164;2023-08-01T18:51:49;-11650.84;;;-142.29;51.49
7748;BME280;3918;42.564;23.164;2023-08-01T18:54:16;-11650.84;;;-142.29;51.66
7748;BME280;3918;42.564;23.164;2023-08-01T18:56:43;-11650.84;;;-142.29;51.35
7748;BME280;3918;42.564;23.164;2023-08-01T18:59:11;-11650.84;;;-142.29;51.17
